createdAt,value
2022-11-30T00:00:57.545Z,95556.38
2022-11-30T00:03:24.910Z,95559.53
2022-11-30T00:05:52.109Z,95552.03
2022-11-30T00:08:18.734Z,95554.66
2022-11-30T00:10:45.237Z,95554.94
2022-11-30T00:13:11.750Z,95552.38
2022-11-30T00:15:38.414Z,95548.41
2022-11-30T00:18:05.466Z,95547.41
2022-11-30T00:20:32.291Z,95549.47
2022-11-30T00:22:58.760Z,95546.50
2022-11-30T00:25:25.990Z,95545.19
2022-11-30T00:27:52.468Z,95545.81
2022-11-30T00:30:19.247Z,95540.97
2022-11-30T00:32:45.680Z,95537.41
2022-11-30T00:35:12.167Z,95538.16
2022-11-30T00:37:38.642Z,95540.06
2022-11-30T00:40:06.548Z,95541.19
2022-11-30T00:42:32.999Z,95546.03
2022-11-30T00:45:02.441Z,95543.78
2022-11-30T00:47:28.901Z,95538.50
2022-11-30T00:49:55.367Z,95545.78
2022-11-30T00:52:21.856Z,95542.34
2022-11-30T00:54:48.471Z,95543.06
2022-11-30T00:57:15.268Z,95538.13
2022-11-30T00:59:41.720Z,95551.16
2022-11-30T01:02:08.226Z,95548.59
2022-11-30T01:04:34.739Z,95557.94
2022-11-30T01:07:01.321Z,95557.06
2022-11-30T01:09:27.769Z,95560.94
2022-11-30T01:11:54.241Z,95561.34
2022-11-30T01:14:20.695Z,95561.41
2022-11-30T01:16:49.694Z,95563.03
2022-11-30T01:19:18.451Z,95567.31
2022-11-30T01:21:44.907Z,95563.34
2022-11-30T01:24:11.383Z,95562.16
2022-11-30T01:26:37.901Z,95563.16
2022-11-30T01:29:04.412Z,95556.38
2022-11-30T01:31:30.932Z,95562.31
2022-11-30T01:33:57.424Z,95563.19
2022-11-30T01:36:26.233Z,95563.84
2022-11-30T01:38:58.042Z,95562.09
2022-11-30T01:41:32.181Z,95562.53
2022-11-30T01:44:20.240Z,95566.00
2022-11-30T01:47:09.900Z,95560.06
2022-11-30T01:49:44.117Z,95564.34
2022-11-30T01:52:28.965Z,95559.59
2022-11-30T01:55:06.534Z,95561.03
2022-11-30T01:57:47.063Z,95556.09
2022-11-30T02:00:15.400Z,95551.41
2022-11-30T02:02:52.951Z,95549.63
2022-11-30T02:05:21.712Z,95553.47
2022-11-30T02:07:48.320Z,95547.19
2022-11-30T02:10:18.059Z,95548.41
2022-11-30T02:13:06.476Z,95552.72
2022-11-30T02:15:49.429Z,95543.22
2022-11-30T02:18:26.637Z,95545.09
2022-11-30T02:21:01.741Z,95542.69
2022-11-30T02:23:53.011Z,95551.47
2022-11-30T02:26:40.249Z,95554.66
2022-11-30T02:29:37.320Z,95557.31
2022-11-30T02:32:29.157Z,95555.16
2022-11-30T02:34:59.616Z,95553.97
2022-11-30T02:37:29.775Z,95543.16
2022-11-30T02:39:57.565Z,95543.63
2022-11-30T02:42:24.022Z,95552.31
2022-11-30T02:44:53.918Z,95547.22
2022-11-30T02:47:55.169Z,95546.19
2022-11-30T02:50:32.937Z,95551.16
2022-11-30T02:53:00.176Z,95549.31
2022-11-30T02:55:28.997Z,95542.63
2022-11-30T02:57:55.452Z,95540.59
2022-11-30T03:00:22.100Z,95542.41
2022-11-30T03:02:48.696Z,95540.94
2022-11-30T03:05:15.318Z,95538.22
2022-11-30T03:07:41.869Z,95553.63
2022-11-30T03:10:09.169Z,95548.63
2022-11-30T03:12:36.192Z,95556.53
2022-11-30T03:15:02.884Z,95543.56
2022-11-30T03:17:29.372Z,95544.00
2022-11-30T03:19:55.876Z,95544.16
2022-11-30T03:22:22.550Z,95545.34
2022-11-30T03:24:49.252Z,95541.31
2022-11-30T03:27:15.978Z,95540.25
2022-11-30T03:29:42.592Z,95540.72
2022-11-30T03:32:09.036Z,95537.81
2022-11-30T03:34:35.494Z,95548.19
2022-11-30T03:37:01.947Z,95543.25
2022-11-30T03:39:28.477Z,95544.69
2022-11-30T03:41:54.940Z,95548.50
2022-11-30T03:44:21.417Z,95552.88
2022-11-30T03:46:47.975Z,95540.41
2022-11-30T03:49:14.480Z,95547.63
2022-11-30T03:51:40.939Z,95549.25
2022-11-30T03:54:07.373Z,95544.56
2022-11-30T03:56:33.817Z,95546.66
2022-11-30T03:59:00.288Z,95544.72
2022-11-30T04:01:27.025Z,95540.94
2022-11-30T04:03:54.291Z,95538.53
2022-11-30T04:06:22.273Z,95538.09
2022-11-30T04:08:48.807Z,95539.56
2022-11-30T04:11:16.216Z,95540.59
2022-11-30T04:14:02.723Z,95542.75
2022-11-30T04:16:42.649Z,95542.56
2022-11-30T04:19:09.078Z,95551.91
2022-11-30T04:21:35.529Z,95551.41
2022-11-30T04:24:01.975Z,95552.13
2022-11-30T04:26:28.433Z,95547.69
2022-11-30T04:28:54.879Z,95562.00
2022-11-30T04:31:21.354Z,95559.22
2022-11-30T04:33:47.871Z,95557.25
2022-11-30T04:36:20.042Z,95560.59
2022-11-30T04:38:47.704Z,95556.16
2022-11-30T04:41:14.294Z,95556.13
2022-11-30T04:43:40.833Z,95555.00
2022-11-30T04:46:07.639Z,95552.91
2022-11-30T04:48:34.609Z,95553.25
2022-11-30T04:51:02.957Z,95552.00
2022-11-30T04:53:29.440Z,95558.19
2022-11-30T04:55:55.932Z,95560.47
2022-11-30T04:58:22.727Z,95554.75
2022-11-30T05:00:49.194Z,95558.88
2022-11-30T05:03:15.627Z,95559.22
2022-11-30T05:05:42.202Z,95562.25
2022-11-30T05:08:09.233Z,95559.66
2022-11-30T05:10:35.673Z,95564.44
2022-11-30T05:13:02.121Z,95561.72
2022-11-30T05:15:28.574Z,95566.00
2022-11-30T05:17:58.455Z,95566.31
2022-11-30T05:20:24.938Z,95565.75
2022-11-30T05:22:51.380Z,95559.84
2022-11-30T05:25:17.848Z,95557.16
2022-11-30T05:27:44.362Z,95552.63
2022-11-30T05:30:12.442Z,95549.09
2022-11-30T05:32:38.964Z,95548.41
2022-11-30T05:35:05.625Z,95554.41
2022-11-30T05:37:32.076Z,95554.47
2022-11-30T05:39:58.541Z,95556.75
2022-11-30T05:42:24.988Z,95545.88
2022-11-30T05:44:51.424Z,95548.16
2022-11-30T05:47:17.914Z,95548.94
2022-11-30T05:49:44.417Z,95560.69
2022-11-30T05:52:11.096Z,95549.81
2022-11-30T05:54:37.543Z,95547.41
2022-11-30T05:57:04.021Z,95555.53
2022-11-30T05:59:30.547Z,95549.41
2022-11-30T06:01:57.090Z,95550.34
2022-11-30T06:04:23.660Z,95556.72
2022-11-30T06:06:50.113Z,95550.56
2022-11-30T06:09:16.716Z,95555.91
2022-11-30T06:11:43.280Z,95551.31
2022-11-30T06:14:09.728Z,95551.25
2022-11-30T06:16:38.842Z,95546.66
2022-11-30T06:19:05.442Z,95541.91
2022-11-30T06:21:31.915Z,95547.06
2022-11-30T06:23:58.352Z,95544.16
2022-11-30T06:26:24.820Z,95548.94
2022-11-30T06:28:51.285Z,95548.78
2022-11-30T06:31:17.827Z,95551.28
2022-11-30T06:33:44.348Z,95543.41
2022-11-30T06:36:10.833Z,95551.03
2022-11-30T06:38:37.463Z,95547.28
2022-11-30T06:41:09.691Z,95554.88
2022-11-30T06:43:38.320Z,95555.56
2022-11-30T06:46:06.761Z,95550.13
2022-11-30T06:48:34.168Z,95558.97
2022-11-30T06:51:01.619Z,95560.13
2022-11-30T06:53:28.093Z,95548.66
2022-11-30T06:55:54.550Z,95555.59
2022-11-30T06:58:21.027Z,95566.16
2022-11-30T07:00:47.573Z,95553.31
2022-11-30T07:03:14.412Z,95557.19
2022-11-30T07:05:44.700Z,95555.31
2022-11-30T07:08:13.129Z,95560.25
2022-11-30T07:10:47.595Z,95553.22
2022-11-30T07:13:18.437Z,95549.53
2022-11-30T07:15:45.759Z,95550.75
2022-11-30T07:18:12.580Z,95549.59
2022-11-30T07:20:40.153Z,95550.16
2022-11-30T07:23:06.874Z,95559.56
2022-11-30T07:25:33.338Z,95558.81
2022-11-30T07:27:59.781Z,95555.47
2022-11-30T07:30:26.327Z,95558.34
2022-11-30T07:32:52.780Z,95556.41
2022-11-30T07:35:19.236Z,95566.22
2022-11-30T07:37:45.746Z,95554.53
2022-11-30T07:40:12.641Z,95567.06
2022-11-30T07:42:39.103Z,95556.94
2022-11-30T07:45:06.161Z,95566.50
2022-11-30T07:47:32.693Z,95570.47
2022-11-30T07:49:59.151Z,95566.06
2022-11-30T07:52:25.730Z,95574.34
2022-11-30T07:54:52.204Z,95566.53
2022-11-30T07:57:18.708Z,95576.84
2022-11-30T07:59:45.701Z,95571.53
2022-11-30T08:02:12.571Z,95569.28
2022-11-30T08:04:39.147Z,95574.16
2022-11-30T08:07:05.653Z,95572.56
2022-11-30T08:09:32.108Z,95579.84
2022-11-30T08:11:58.583Z,95574.94
2022-11-30T08:14:25.034Z,95577.56
2022-11-30T08:16:51.550Z,95576.50
2022-11-30T08:19:18.054Z,95570.97
2022-11-30T08:21:44.554Z,95573.25
2022-11-30T08:24:12.084Z,95574.94
2022-11-30T08:26:38.628Z,95573.50
2022-11-30T08:29:05.110Z,95581.97
2022-11-30T08:31:35.149Z,95578.53
2022-11-30T08:34:04.937Z,95582.19
2022-11-30T08:36:31.701Z,95581.88
2022-11-30T08:39:00.045Z,95583.47
2022-11-30T08:41:27.076Z,95590.06
2022-11-30T08:43:54.195Z,95584.41
2022-11-30T08:49:21.473Z,95579.69
2022-11-30T08:52:16.455Z,95581.44
2022-11-30T08:54:37.776Z,95588.88
2022-11-30T08:57:04.249Z,95586.88
2022-11-30T08:59:31.601Z,95585.72
2022-11-30T09:01:58.098Z,95593.91
2022-11-30T09:04:24.693Z,95586.69
2022-11-30T09:06:51.187Z,95588.97
2022-11-30T09:09:17.681Z,95585.34
2022-11-30T09:11:44.400Z,95593.66
2022-11-30T09:14:10.878Z,95587.59
2022-11-30T09:16:37.333Z,95579.56
2022-11-30T09:19:03.833Z,95589.22
2022-11-30T09:21:30.479Z,95590.13
2022-11-30T09:23:57.720Z,95593.41
2022-11-30T09:26:24.269Z,95590.53
2022-11-30T09:28:52.124Z,95600.59
2022-11-30T09:31:24.621Z,95592.44
2022-11-30T09:33:52.013Z,95597.88
2022-11-30T09:36:22.710Z,95597.88
2022-11-30T09:38:49.827Z,95602.50
2022-11-30T09:41:28.321Z,95597.34
2022-11-30T09:44:15.237Z,95589.13
2022-11-30T09:46:50.821Z,95598.78
2022-11-30T09:49:48.411Z,95586.06
2022-11-30T09:52:37.040Z,95576.94
2022-11-30T09:55:09.530Z,95587.50
2022-11-30T09:57:46.418Z,95589.75
2022-11-30T10:00:19.568Z,95577.13
2022-11-30T10:02:46.517Z,95573.66
2022-11-30T10:05:38.535Z,95576.94
2022-11-30T10:08:25.084Z,95569.38
2022-11-30T10:11:18.652Z,95578.09
2022-11-30T10:14:26.457Z,95573.16
2022-11-30T10:17:19.984Z,95572.34
2022-11-30T10:20:14.449Z,95572.19
2022-11-30T10:23:15.576Z,95569.41
2022-11-30T10:25:50.846Z,95572.97
2022-11-30T10:31:15.347Z,95563.47
2022-11-30T10:33:50.750Z,95563.78
2022-11-30T10:36:33.091Z,95562.78
2022-11-30T10:39:05.188Z,95561.09
2022-11-30T10:41:47.427Z,95555.22
2022-11-30T10:44:16.891Z,95560.00
2022-11-30T10:46:55.106Z,95548.69
2022-11-30T10:49:25.406Z,95559.16
2022-11-30T10:52:06.255Z,95543.75
2022-11-30T10:54:36.359Z,95547.53
2022-11-30T10:57:06.040Z,95554.75
2022-11-30T10:59:53.296Z,95547.88
2022-11-30T11:02:38.582Z,95547.03
2022-11-30T11:05:18.933Z,95546.72
2022-11-30T11:08:24.536Z,95550.00
2022-11-30T11:10:51.097Z,95542.44
2022-11-30T11:13:34.795Z,95542.28
2022-11-30T11:16:03.009Z,95549.38
2022-11-30T11:18:31.910Z,95533.56
2022-11-30T11:21:16.281Z,95542.44
2022-11-30T11:23:45.062Z,95538.66
2022-11-30T11:26:26.900Z,95539.00
2022-11-30T11:28:58.963Z,95532.78
2022-11-30T11:31:45.464Z,95527.31
2022-11-30T11:34:33.565Z,95534.56
2022-11-30T11:37:22.044Z,95528.63
2022-11-30T11:40:15.974Z,95523.66
2022-11-30T11:42:50.601Z,95529.81
2022-11-30T11:45:20.709Z,95533.84
2022-11-30T11:48:00.307Z,95524.63
2022-11-30T11:51:05.649Z,95521.72
2022-11-30T11:53:42.678Z,95514.44
2022-11-30T11:56:25.780Z,95515.13
2022-11-30T11:59:03.390Z,95510.56
2022-11-30T12:01:41.947Z,95515.50
2022-11-30T12:04:37.510Z,95516.09
2022-11-30T12:07:33.812Z,95509.75
2022-11-30T12:10:50.104Z,95503.50
2022-11-30T12:13:14.458Z,95514.84
2022-11-30T12:16:11.453Z,95509.25
2022-11-30T12:18:59.764Z,95514.81
2022-11-30T12:21:58.727Z,95519.13
2022-11-30T12:24:31.278Z,95507.97
2022-11-30T12:27:11.742Z,95509.41
2022-11-30T12:29:51.323Z,95518.13
2022-11-30T12:32:45.889Z,95514.47
2022-11-30T12:35:30.633Z,95516.72
2022-11-30T12:38:20.767Z,95515.91
2022-11-30T12:41:15.413Z,95516.09
2022-11-30T12:44:00.768Z,95514.19
2022-11-30T12:46:41.179Z,95514.16
2022-11-30T12:49:46.014Z,95516.16
2022-11-30T12:52:21.544Z,95518.78
2022-11-30T12:55:00.316Z,95508.63
2022-11-30T12:57:36.407Z,95509.09
2022-11-30T13:00:13.268Z,95507.78
2022-11-30T13:02:39.759Z,95495.47
2022-11-30T13:05:16.532Z,95501.72
2022-11-30T13:08:02.298Z,95505.66
2022-11-30T13:10:42.711Z,95496.63
2022-11-30T13:13:21.028Z,95491.22
2022-11-30T13:15:49.109Z,95494.50
2022-11-30T13:18:19.836Z,95489.56
2022-11-30T13:21:06.597Z,95486.06
2022-11-30T13:23:41.448Z,95500.84
2022-11-30T13:26:20.057Z,95495.78
2022-11-30T13:28:57.695Z,95501.06
2022-11-30T13:31:43.587Z,95498.91
2022-11-30T13:34:30.397Z,95503.78
2022-11-30T13:37:13.832Z,95503.59
2022-11-30T13:39:52.820Z,95510.34
2022-11-30T13:42:43.003Z,95505.72
2022-11-30T13:45:14.426Z,95500.72
2022-11-30T13:47:47.829Z,95514.00
2022-11-30T13:50:38.508Z,95498.31
2022-11-30T13:53:23.225Z,95510.84
2022-11-30T13:56:04.894Z,95502.22
2022-11-30T13:58:32.143Z,95496.47
2022-11-30T14:04:19.978Z,95504.25
2022-11-30T14:06:54.745Z,95507.22
2022-11-30T14:09:39.684Z,95499.53
2022-11-30T14:12:31.018Z,95503.75
2022-11-30T14:15:01.852Z,95501.31
2022-11-30T14:17:34.715Z,95499.91
2022-11-30T14:20:24.329Z,95501.56
2022-11-30T14:22:51.709Z,95499.69
2022-11-30T14:25:20.771Z,95503.28
2022-11-30T14:27:52.616Z,95500.53
2022-11-30T14:30:23.186Z,95502.00
2022-11-30T14:33:01.433Z,95503.50
2022-11-30T14:35:31.827Z,95506.38
2022-11-30T14:38:01.096Z,95502.03
2022-11-30T14:40:29.320Z,95515.81
2022-11-30T14:42:59.162Z,95509.94
2022-11-30T14:45:31.712Z,95507.63
2022-11-30T14:48:15.166Z,95512.41
2022-11-30T14:50:51.445Z,95509.06
2022-11-30T14:53:31.413Z,95515.91
2022-11-30T14:56:22.053Z,95507.41
2022-11-30T14:59:03.249Z,95503.41
2022-11-30T15:01:32.810Z,95494.72
2022-11-30T15:04:12.471Z,95495.09
2022-11-30T15:06:41.042Z,95503.41
2022-11-30T15:09:18.775Z,95507.81
2022-11-30T15:11:48.733Z,95514.38
2022-11-30T15:14:16.594Z,95520.28
2022-11-30T15:16:54.008Z,95511.78
2022-11-30T15:19:24.347Z,95512.56
2022-11-30T15:21:52.142Z,95510.03
2022-11-30T15:24:19.220Z,95511.53
2022-11-30T15:26:54.928Z,95512.84
2022-11-30T15:29:31.293Z,95509.66
2022-11-30T15:32:02.544Z,95510.97
2022-11-30T15:34:45.591Z,95506.78
2022-11-30T15:37:12.563Z,95514.00
2022-11-30T15:39:39.815Z,95515.13
2022-11-30T15:42:07.140Z,95512.44
2022-11-30T15:44:42.869Z,95511.81
2022-11-30T15:47:36.232Z,95520.13
2022-11-30T15:50:31.029Z,95512.75
2022-11-30T15:53:03.469Z,95520.75
2022-11-30T15:55:49.738Z,95526.38
2022-11-30T15:58:33.547Z,95517.69
2022-11-30T16:01:02.470Z,95524.66
2022-11-30T16:03:29.023Z,95521.88
2022-11-30T16:05:58.364Z,95534.53
2022-11-30T16:08:25.372Z,95532.66
2022-11-30T16:10:52.201Z,95531.63
2022-11-30T16:16:49.839Z,95539.25
2022-11-30T16:19:16.373Z,95534.88
2022-11-30T16:21:43.072Z,95540.16
2022-11-30T16:24:13.835Z,95548.16
2022-11-30T16:26:51.047Z,95544.06
2022-11-30T16:29:18.521Z,95542.59
2022-11-30T16:31:45.130Z,95550.56
2022-11-30T16:34:11.824Z,95548.34
2022-11-30T16:36:38.320Z,95547.91
2022-11-30T16:39:05.252Z,95560.25
2022-11-30T16:41:31.733Z,95549.91
2022-11-30T16:43:58.260Z,95560.88
2022-11-30T16:46:27.997Z,95560.03
2022-11-30T16:48:55.369Z,95565.88
2022-11-30T16:51:21.856Z,95554.47
2022-11-30T16:53:48.352Z,95565.22
2022-11-30T16:56:15.898Z,95566.47
2022-11-30T16:58:43.358Z,95565.00
2022-11-30T17:01:21.391Z,95572.47
2022-11-30T17:03:51.276Z,95566.94
2022-11-30T17:06:21.486Z,95559.69
2022-11-30T17:08:50.983Z,95567.53
2022-11-30T17:11:29.217Z,95573.53
2022-11-30T17:13:55.839Z,95579.69
2022-11-30T17:16:22.668Z,95581.00
2022-11-30T17:18:49.167Z,95587.75
2022-11-30T17:21:20.198Z,95583.53
2022-11-30T17:23:46.669Z,95581.44
2022-11-30T17:26:13.648Z,95579.00
2022-11-30T17:28:40.201Z,95589.06
2022-11-30T17:31:07.023Z,95589.28
2022-11-30T17:33:34.638Z,95592.53
2022-11-30T17:36:06.455Z,95592.00
2022-11-30T17:38:34.955Z,95594.06
2022-11-30T17:41:11.032Z,95600.00
2022-11-30T17:43:39.476Z,95598.56
2022-11-30T17:46:11.851Z,95593.22
2022-11-30T17:48:38.740Z,95602.94
2022-11-30T17:51:05.607Z,95603.22
2022-11-30T17:53:32.230Z,95596.81
2022-11-30T17:56:06.204Z,95599.28
2022-11-30T17:58:35.415Z,95594.66
2022-11-30T18:01:03.593Z,95598.69
2022-11-30T18:03:30.213Z,95598.78
2022-11-30T18:06:01.047Z,95586.53
2022-11-30T18:08:28.564Z,95597.13
2022-11-30T18:10:55.039Z,95592.47
2022-11-30T18:13:22.194Z,95600.44
2022-11-30T18:15:48.731Z,95602.69
2022-11-30T18:18:15.434Z,95607.84
2022-11-30T18:20:41.866Z,95615.63
2022-11-30T18:23:09.416Z,95609.31
2022-11-30T18:25:35.997Z,95610.88
2022-11-30T18:28:02.477Z,95615.78
2022-11-30T18:30:28.986Z,95601.53
2022-11-30T18:32:55.513Z,95600.69
2022-11-30T18:35:21.969Z,95603.66
2022-11-30T18:37:48.428Z,95585.84
2022-11-30T18:40:14.972Z,95604.31
2022-11-30T18:42:41.405Z,95591.81
2022-11-30T18:45:37.036Z,95605.38
2022-11-30T18:48:03.740Z,95595.22
2022-11-30T18:50:30.200Z,95597.06
2022-11-30T18:52:56.785Z,95607.94
2022-11-30T18:55:24.542Z,95593.25
2022-11-30T18:57:51.483Z,95605.22
2022-11-30T19:00:18.516Z,95602.44
2022-11-30T19:02:46.940Z,95606.78
2022-11-30T19:05:14.259Z,95606.34
2022-11-30T19:07:40.772Z,95603.84
2022-11-30T19:10:08.517Z,95594.50
2022-11-30T19:12:35.029Z,95596.50
2022-11-30T19:15:04.921Z,95601.59
2022-11-30T19:17:31.383Z,95598.72
2022-11-30T19:19:58.105Z,95599.28
2022-11-30T19:22:24.608Z,95622.41
2022-11-30T19:24:51.073Z,95611.88
2022-11-30T19:27:17.572Z,95608.69
2022-11-30T19:29:44.056Z,95616.09
2022-11-30T19:32:10.546Z,95611.00
2022-11-30T19:34:37.155Z,95627.94
2022-11-30T19:37:03.625Z,95614.03
2022-11-30T19:39:30.087Z,95621.53
2022-11-30T19:41:59.093Z,95622.44
2022-11-30T19:44:25.593Z,95616.00
2022-11-30T19:46:52.052Z,95613.38
2022-11-30T19:49:18.564Z,95618.16
2022-11-30T19:51:45.049Z,95627.69
2022-11-30T19:54:11.549Z,95624.38
2022-11-30T19:56:38.264Z,95628.19
2022-11-30T19:59:06.018Z,95627.09
2022-11-30T20:01:33.991Z,95627.38
2022-11-30T20:04:00.927Z,95627.31
2022-11-30T20:06:35.309Z,95632.53
2022-11-30T20:09:03.343Z,95634.88
2022-11-30T20:11:29.816Z,95638.75
2022-11-30T20:13:56.308Z,95644.47
2022-11-30T20:16:23.429Z,95633.22
2022-11-30T20:18:55.808Z,95649.53
2022-11-30T20:21:25.576Z,95644.91
2022-11-30T20:23:53.820Z,95648.63
2022-11-30T20:26:31.300Z,95644.94
2022-11-30T20:29:00.100Z,95643.03
2022-11-30T20:31:28.689Z,95648.47
2022-11-30T20:33:55.570Z,95649.56
2022-11-30T20:36:22.743Z,95639.38
2022-11-30T20:38:49.760Z,95640.84
2022-11-30T20:41:21.814Z,95653.69
2022-11-30T20:43:49.099Z,95654.44
2022-11-30T20:46:21.103Z,95647.97
2022-11-30T20:48:48.653Z,95653.31
2022-11-30T20:51:36.629Z,95645.09
2022-11-30T20:54:07.221Z,95640.94
2022-11-30T20:56:35.541Z,95647.28
2022-11-30T20:59:04.830Z,95647.81
2022-11-30T21:01:32.285Z,95642.19
2022-11-30T21:04:02.123Z,95640.25
2022-11-30T21:06:30.293Z,95644.47
2022-11-30T21:08:57.660Z,95639.13
2022-11-30T21:11:26.687Z,95643.94
2022-11-30T21:13:54.176Z,95641.50
2022-11-30T21:16:27.741Z,95637.59
2022-11-30T21:18:57.761Z,95634.63
2022-11-30T21:21:29.952Z,95634.06
2022-11-30T21:24:01.745Z,95629.97
2022-11-30T21:26:31.258Z,95642.31
2022-11-30T21:29:11.792Z,95643.72
2022-11-30T21:31:38.332Z,95645.22
2022-11-30T21:34:04.999Z,95642.91
2022-11-30T21:36:32.119Z,95648.41
2022-11-30T21:39:06.031Z,95647.00
2022-11-30T21:41:38.315Z,95648.38
2022-11-30T21:44:06.980Z,95652.19
2022-11-30T21:46:33.817Z,95655.38
2022-11-30T21:49:00.691Z,95654.25
2022-11-30T21:51:29.620Z,95654.63
2022-11-30T21:53:58.723Z,95662.28
2022-11-30T21:56:27.797Z,95660.16
2022-11-30T21:58:54.713Z,95662.56
2022-11-30T22:01:28.898Z,95656.56
2022-11-30T22:03:56.842Z,95662.78
2022-11-30T22:06:25.475Z,95656.88
2022-11-30T22:08:52.087Z,95649.31
2022-11-30T22:11:21.458Z,95651.97
2022-11-30T22:13:53.050Z,95665.84
2022-11-30T22:16:21.725Z,95661.72
2022-11-30T22:18:48.610Z,95669.50
2022-11-30T22:21:18.087Z,95664.63
2022-11-30T22:23:47.306Z,95666.44
2022-11-30T22:26:24.424Z,95670.56
2022-11-30T22:28:54.668Z,95665.50
2022-11-30T22:31:24.417Z,95659.53
2022-11-30T22:33:51.333Z,95666.69
2022-11-30T22:36:23.187Z,95671.91
2022-11-30T22:39:01.018Z,95667.91
2022-11-30T22:41:28.480Z,95676.03
2022-11-30T22:43:56.159Z,95665.88
2022-11-30T22:46:28.665Z,95667.63
2022-11-30T22:48:55.483Z,95668.94
2022-11-30T22:51:27.777Z,95674.22
2022-11-30T22:53:56.245Z,95679.66
2022-11-30T22:56:25.907Z,95665.50
2022-11-30T22:58:54.966Z,95667.28
2022-11-30T23:01:24.023Z,95674.31
2022-11-30T23:03:52.641Z,95666.50
2022-11-30T23:06:20.695Z,95662.06
2022-11-30T23:08:48.902Z,95663.72
2022-11-30T23:11:22.364Z,95667.38
2022-11-30T23:13:49.144Z,95671.09
2022-11-30T23:16:15.877Z,95663.91
2022-11-30T23:18:51.604Z,95661.97
2022-11-30T23:21:24.337Z,95660.72
2022-11-30T23:23:50.845Z,95666.31
2022-11-30T23:26:20.629Z,95659.44
2022-11-30T23:28:49.143Z,95659.00
2022-11-30T23:31:34.502Z,95659.63
2022-11-30T23:34:08.090Z,95655.47
2022-11-30T23:36:35.695Z,95654.00
2022-11-30T23:39:08.441Z,95657.22
2022-11-30T23:41:34.976Z,95660.66
2022-11-30T23:44:01.685Z,95649.78
2022-11-30T23:46:28.331Z,95651.72
2022-11-30T23:48:54.901Z,95650.44
2022-11-30T23:51:22.540Z,95648.03
2022-11-30T23:53:48.994Z,95645.13
2022-11-30T23:56:17.499Z,95644.97
2022-11-30T23:58:44.392Z,95639.53
